createdAt,value
2022-12-26T00:01:12.987Z,98244.75
2022-12-26T00:03:18.080Z,98242.06
2022-12-26T00:05:25.536Z,98246.34
2022-12-26T00:07:30.322Z,98247.97
2022-12-26T00:09:35.561Z,98253.84
2022-12-26T00:11:40.613Z,98256.47
2022-12-26T00:13:45.968Z,98257.28
2022-12-26T00:15:50.972Z,98252.03
2022-12-26T00:17:55.769Z,98253.66
2022-12-26T00:20:00.597Z,98253.53
2022-12-26T00:22:08.705Z,98249.03
2022-12-26T00:24:14.694Z,98243.59
2022-12-26T00:26:21.767Z,98243.41
2022-12-26T00:28:26.578Z,98252.84
2022-12-26T00:30:31.576Z,98252.69
2022-12-26T00:32:36.424Z,98243.81
2022-12-26T00:34:41.272Z,98240.28
2022-12-26T00:36:46.115Z,98247.94
2022-12-26T00:38:54.561Z,98250.28
2022-12-26T00:40:59.444Z,98245.88
2022-12-26T00:43:04.299Z,98250.03
2022-12-26T00:45:10.661Z,98249.03
2022-12-26T00:47:15.442Z,98252.44
2022-12-26T00:49:20.362Z,98244.56
2022-12-26T00:51:25.372Z,98237.50
2022-12-26T00:53:30.691Z,98236.59
2022-12-26T00:55:38.105Z,98238.44
2022-12-26T00:57:42.911Z,98234.28
2022-12-26T00:59:47.716Z,98240.50
2022-12-26T01:01:52.752Z,98239.72
2022-12-26T01:03:57.818Z,98238.06
2022-12-26T01:06:06.605Z,98238.88
2022-12-26T01:08:19.970Z,98250.03
2022-12-26T01:10:30.199Z,98256.78
2022-12-26T01:12:37.852Z,98248.00
2022-12-26T01:14:42.767Z,98254.00
2022-12-26T01:16:49.744Z,98249.63
2022-12-26T01:18:56.176Z,98246.09
2022-12-26T01:21:01.965Z,98248.72
2022-12-26T01:23:06.807Z,98245.03
2022-12-26T01:25:13.437Z,98242.56
2022-12-26T01:27:18.257Z,98238.94
2022-12-26T01:29:26.377Z,98231.16
2022-12-26T01:31:31.261Z,98237.22
2022-12-26T01:33:36.619Z,98235.53
2022-12-26T01:35:41.476Z,98229.50
2022-12-26T01:37:46.207Z,98241.72
2022-12-26T01:39:51.216Z,98229.91
2022-12-26T01:41:59.254Z,98220.47
2022-12-26T01:44:06.117Z,98216.28
2022-12-26T01:46:13.714Z,98223.63
2022-12-26T01:48:23.489Z,98232.31
2022-12-26T01:50:35.558Z,98233.16
2022-12-26T01:52:46.923Z,98240.13
2022-12-26T01:54:54.862Z,98225.34
2022-12-26T01:57:01.401Z,98233.16
2022-12-26T01:59:11.000Z,98236.84
2022-12-26T02:01:19.208Z,98237.75
2022-12-26T02:03:37.322Z,98224.72
2022-12-26T02:05:41.461Z,98239.31
2022-12-26T02:07:48.783Z,98221.84
2022-12-26T02:09:53.779Z,98227.78
2022-12-26T02:12:34.238Z,98228.56
2022-12-26T02:14:28.768Z,98217.28
2022-12-26T02:16:37.611Z,98228.56
2022-12-26T02:18:42.907Z,98220.94
2022-12-26T02:20:54.905Z,98228.19
2022-12-26T02:23:41.219Z,98231.63
2022-12-26T02:26:21.085Z,98237.88
2022-12-26T02:29:00.967Z,98235.41
2022-12-26T02:31:14.193Z,98240.63
2022-12-26T02:33:38.746Z,98242.25
2022-12-26T02:35:57.623Z,98230.91
2022-12-26T02:38:18.559Z,98231.84
2022-12-26T02:40:42.797Z,98229.22
2022-12-26T02:42:59.960Z,98225.00
2022-12-26T02:45:28.761Z,98227.47
2022-12-26T02:47:44.919Z,98224.03
2022-12-26T02:50:14.889Z,98226.69
2022-12-26T02:52:37.562Z,98227.59
2022-12-26T02:55:01.339Z,98228.59
2022-12-26T02:57:20.788Z,98226.88
2022-12-26T02:59:55.282Z,98241.66
2022-12-26T03:02:19.426Z,98230.47
2022-12-26T03:04:42.869Z,98227.00
2022-12-26T03:07:08.372Z,98224.63
2022-12-26T03:09:30.604Z,98227.34
2022-12-26T03:11:52.386Z,98233.53
2022-12-26T03:14:01.199Z,98224.88
2022-12-26T03:16:22.359Z,98228.25
2022-12-26T03:18:58.831Z,98204.91
2022-12-26T03:20:59.574Z,98207.41
2022-12-26T03:23:09.036Z,98211.66
2022-12-26T03:25:29.956Z,98216.66
2022-12-26T03:27:34.120Z,98236.59
2022-12-26T03:29:51.383Z,98226.13
2022-12-26T03:31:56.422Z,98237.09
2022-12-26T03:34:19.881Z,98232.81
2022-12-26T03:36:39.466Z,98230.00
2022-12-26T03:38:56.103Z,98223.03
2022-12-26T03:41:21.612Z,98226.50
2022-12-26T03:43:58.689Z,98223.81
2022-12-26T03:46:25.968Z,98219.44
2022-12-26T03:48:47.825Z,98217.63
2022-12-26T03:51:12.105Z,98219.31
2022-12-26T03:53:37.874Z,98219.97
2022-12-26T03:56:01.778Z,98219.97
2022-12-26T03:58:23.085Z,98223.34
2022-12-26T04:00:43.031Z,98223.41
2022-12-26T04:03:03.044Z,98229.44
2022-12-26T04:05:24.321Z,98240.75
2022-12-26T04:07:56.702Z,98228.59
2022-12-26T04:10:23.372Z,98233.81
2022-12-26T04:12:43.336Z,98234.75
2022-12-26T04:15:18.151Z,98232.97
2022-12-26T04:17:42.893Z,98226.78
2022-12-26T04:19:58.537Z,98228.47
2022-12-26T04:22:22.229Z,98220.47
2022-12-26T04:24:44.376Z,98233.41
2022-12-26T04:27:08.471Z,98231.53
2022-12-26T04:29:25.808Z,98225.19
2022-12-26T04:31:48.421Z,98218.13
2022-12-26T04:34:08.348Z,98219.72
2022-12-26T04:36:31.528Z,98229.22
2022-12-26T04:38:57.994Z,98232.50
2022-12-26T04:41:17.772Z,98231.13
2022-12-26T04:43:49.388Z,98230.28
2022-12-26T04:45:57.578Z,98233.91
2022-12-26T04:48:26.841Z,98234.84
2022-12-26T04:50:31.715Z,98241.72
2022-12-26T04:52:48.820Z,98234.00
2022-12-26T04:54:53.599Z,98234.00
2022-12-26T04:57:01.220Z,98234.69
2022-12-26T04:59:08.677Z,98244.06
2022-12-26T05:01:26.306Z,98247.44
2022-12-26T05:03:44.073Z,98241.25
2022-12-26T05:06:04.124Z,98238.56
2022-12-26T05:08:21.351Z,98235.22
2022-12-26T05:10:28.711Z,98238.47
2022-12-26T05:12:33.645Z,98234.78
2022-12-26T05:14:41.016Z,98234.69
2022-12-26T05:16:58.900Z,98231.19
2022-12-26T05:19:16.310Z,98225.00
2022-12-26T05:21:36.830Z,98228.50
2022-12-26T05:23:54.114Z,98222.44
2022-12-26T05:26:17.466Z,98221.47
2022-12-26T05:28:35.325Z,98217.25
2022-12-26T05:30:42.811Z,98223.00
2022-12-26T05:33:00.115Z,98220.25
2022-12-26T05:35:04.942Z,98214.00
2022-12-26T05:37:09.836Z,98209.63
2022-12-26T05:39:14.755Z,98212.19
2022-12-26T05:41:21.294Z,98210.25
2022-12-26T05:43:26.116Z,98209.19
2022-12-26T05:45:30.859Z,98213.28
2022-12-26T05:47:39.055Z,98201.00
2022-12-26T05:49:43.892Z,98203.53
2022-12-26T05:51:48.736Z,98197.28
2022-12-26T05:53:53.921Z,98196.63
2022-12-26T05:55:58.697Z,98197.28
2022-12-26T05:58:04.339Z,98202.41
2022-12-26T06:00:10.835Z,98208.25
2022-12-26T06:02:15.641Z,98203.81
2022-12-26T06:04:23.163Z,98194.78
2022-12-26T06:06:29.221Z,98210.44
2022-12-26T06:08:34.408Z,98204.19
2022-12-26T06:10:38.904Z,98201.63
2022-12-26T06:12:43.714Z,98196.25
2022-12-26T06:14:48.444Z,98195.91
2022-12-26T06:16:53.433Z,98194.91
2022-12-26T06:18:59.672Z,98199.03
2022-12-26T06:21:12.859Z,98191.16
2022-12-26T06:23:17.764Z,98173.56
2022-12-26T06:25:22.539Z,98175.25
2022-12-26T06:27:27.388Z,98175.25
2022-12-26T06:29:32.699Z,98169.97
2022-12-26T06:31:37.606Z,98163.81
2022-12-26T06:33:42.889Z,98169.19
2022-12-26T06:35:47.671Z,98180.41
2022-12-26T06:37:55.131Z,98177.53
2022-12-26T06:39:59.933Z,98177.63
2022-12-26T06:42:05.418Z,98189.59
2022-12-26T06:44:16.155Z,98195.59
2022-12-26T06:46:25.466Z,98203.34
2022-12-26T06:48:30.713Z,98186.94
2022-12-26T06:50:38.310Z,98176.72
2022-12-26T06:52:43.360Z,98177.47
2022-12-26T06:54:50.833Z,98181.47
2022-12-26T06:56:55.597Z,98185.78
2022-12-26T06:59:03.751Z,98189.13
2022-12-26T07:01:09.364Z,98199.66
2022-12-26T07:03:14.631Z,98200.34
2022-12-26T07:05:19.325Z,98204.88
2022-12-26T07:07:24.503Z,98206.50
2022-12-26T07:09:33.553Z,98201.50
2022-12-26T07:11:44.256Z,98205.34
2022-12-26T07:13:49.098Z,98207.56
2022-12-26T07:15:54.041Z,98210.78
2022-12-26T07:17:58.828Z,98206.50
2022-12-26T07:20:03.619Z,98208.88
2022-12-26T07:22:08.395Z,98212.56
2022-12-26T07:24:18.455Z,98216.38
2022-12-26T07:26:23.850Z,98227.69
2022-12-26T07:28:31.977Z,98220.63
2022-12-26T07:30:36.807Z,98219.63
2022-12-26T07:32:41.698Z,98215.19
2022-12-26T07:34:46.504Z,98221.34
2022-12-26T07:36:51.385Z,98213.50
2022-12-26T07:38:56.214Z,98220.56
2022-12-26T07:41:26.017Z,98228.44
2022-12-26T07:43:34.697Z,98218.94
2022-12-26T07:45:45.253Z,98232.47
2022-12-26T07:47:51.068Z,98233.44
2022-12-26T07:49:55.910Z,98239.28
2022-12-26T07:52:00.829Z,98229.69
2022-12-26T07:54:11.023Z,98243.81
2022-12-26T07:56:16.656Z,98245.25
2022-12-26T07:58:21.437Z,98241.66
2022-12-26T08:00:28.944Z,98243.38
2022-12-26T08:02:33.898Z,98237.22
2022-12-26T08:04:38.627Z,98234.91
2022-12-26T08:06:43.495Z,98233.81
2022-12-26T08:08:51.097Z,98238.06
2022-12-26T08:11:02.471Z,98244.22
2022-12-26T08:13:07.881Z,98248.44
2022-12-26T08:15:14.459Z,98250.41
2022-12-26T08:17:22.037Z,98248.59
2022-12-26T08:19:26.899Z,98250.19
2022-12-26T08:21:31.751Z,98245.25
2022-12-26T08:23:37.019Z,98257.41
2022-12-26T08:25:41.927Z,98253.97
2022-12-26T08:27:46.781Z,98248.75
2022-12-26T08:29:51.698Z,98246.81
2022-12-26T08:31:56.898Z,98248.34
2022-12-26T08:34:07.265Z,98246.56
2022-12-26T08:36:16.965Z,98253.56
2022-12-26T08:38:26.152Z,98263.00
2022-12-26T08:40:43.153Z,98262.03
2022-12-26T08:43:03.302Z,98272.38
2022-12-26T08:45:13.792Z,98292.19
2022-12-26T08:47:19.012Z,98289.06
2022-12-26T08:49:26.103Z,98306.91
2022-12-26T08:51:30.933Z,98310.59
2022-12-26T08:53:36.512Z,98305.28
2022-12-26T08:55:41.356Z,98307.69
2022-12-26T08:57:46.164Z,98307.59
2022-12-26T08:59:51.050Z,98312.75
2022-12-26T09:01:55.963Z,98309.50
2022-12-26T09:04:02.723Z,98308.81
2022-12-26T09:06:11.616Z,98306.06
2022-12-26T09:08:16.552Z,98311.97
2022-12-26T09:10:21.342Z,98300.63
2022-12-26T09:12:26.205Z,98299.56
2022-12-26T09:14:31.056Z,98294.81
2022-12-26T09:16:43.023Z,98301.50
2022-12-26T09:18:51.895Z,98297.06
2022-12-26T09:20:56.703Z,98299.56
2022-12-26T09:23:04.137Z,98299.50
2022-12-26T09:25:09.419Z,98294.88
2022-12-26T09:27:15.026Z,98296.50
2022-12-26T09:29:19.847Z,98289.50
2022-12-26T09:31:27.059Z,98298.75
2022-12-26T09:33:33.396Z,98303.72
2022-12-26T09:35:38.169Z,98307.34
2022-12-26T09:37:42.991Z,98308.88
2022-12-26T09:39:50.468Z,98318.25
2022-12-26T09:42:04.906Z,98310.72
2022-12-26T09:44:18.929Z,98309.97
2022-12-26T09:46:35.292Z,98320.25
2022-12-26T09:48:47.685Z,98316.72
2022-12-26T09:50:54.494Z,98315.25
2022-12-26T09:53:01.949Z,98332.31
2022-12-26T09:55:24.218Z,98331.75
2022-12-26T09:57:37.589Z,98333.03
2022-12-26T09:59:48.966Z,98335.34
2022-12-26T10:01:54.012Z,98336.59
2022-12-26T10:03:59.313Z,98348.38
2022-12-26T10:06:13.212Z,98353.81
2022-12-26T10:08:28.653Z,98363.00
2022-12-26T10:10:47.690Z,98371.34
2022-12-26T10:13:01.805Z,98370.56
2022-12-26T10:15:17.953Z,98388.28
2022-12-26T10:17:32.057Z,98377.47
2022-12-26T10:19:47.453Z,98380.56
2022-12-26T10:22:09.600Z,98382.19
2022-12-26T10:24:19.181Z,98399.91
2022-12-26T10:26:32.165Z,98393.28
2022-12-26T10:28:40.383Z,98390.38
2022-12-26T10:30:48.317Z,98399.34
2022-12-26T10:32:58.359Z,98412.00
2022-12-26T10:35:04.149Z,98400.13
2022-12-26T10:37:18.246Z,98407.88
2022-12-26T10:39:28.685Z,98416.03
2022-12-26T10:41:44.737Z,98422.31
2022-12-26T10:43:49.813Z,98418.72
2022-12-26T10:46:09.881Z,98429.31
2022-12-26T10:48:17.390Z,98441.84
2022-12-26T10:50:27.960Z,98446.25
2022-12-26T10:52:35.865Z,98444.75
2022-12-26T10:54:40.704Z,98445.59
2022-12-26T10:56:50.592Z,98453.69
2022-12-26T10:59:03.501Z,98448.28
2022-12-26T11:01:33.909Z,98440.31
2022-12-26T11:03:57.016Z,98443.91
2022-12-26T11:06:09.440Z,98442.56
2022-12-26T11:08:21.787Z,98440.66
2022-12-26T11:10:29.316Z,98448.47
2022-12-26T11:12:42.843Z,98446.19
2022-12-26T11:14:49.092Z,98451.69
2022-12-26T11:16:54.036Z,98449.06
2022-12-26T11:18:59.494Z,98446.59
2022-12-26T11:21:16.029Z,98443.00
2022-12-26T11:23:25.910Z,98445.06
2022-12-26T11:25:35.262Z,98443.34
2022-12-26T11:27:44.012Z,98442.31
2022-12-26T11:29:48.949Z,98438.91
2022-12-26T11:31:56.871Z,98439.47
2022-12-26T11:34:04.038Z,98426.41
2022-12-26T11:36:14.197Z,98422.34
2022-12-26T11:38:39.031Z,98422.09
2022-12-26T11:41:12.533Z,98425.03
2022-12-26T11:43:28.776Z,98429.84
2022-12-26T11:45:38.948Z,98422.88
2022-12-26T11:47:48.541Z,98424.06
2022-12-26T11:50:01.798Z,98435.50
2022-12-26T11:52:37.874Z,98438.78
2022-12-26T11:54:51.827Z,98435.34
2022-12-26T11:57:14.802Z,98421.38
2022-12-26T11:59:25.397Z,98424.72
2022-12-26T12:01:30.175Z,98433.25
2022-12-26T12:03:43.725Z,98435.78
2022-12-26T12:05:57.656Z,98429.31
2022-12-26T12:08:21.199Z,98422.94
2022-12-26T12:10:50.115Z,98420.19
2022-12-26T12:13:03.791Z,98445.16
2022-12-26T12:15:19.822Z,98412.44
2022-12-26T12:17:29.584Z,98406.09
2022-12-26T12:19:45.581Z,98398.38
2022-12-26T12:22:13.987Z,98395.53
2022-12-26T12:24:50.590Z,98397.53
2022-12-26T12:27:05.438Z,98387.41
2022-12-26T12:29:36.122Z,98411.16
2022-12-26T12:31:56.374Z,98410.31
2022-12-26T12:34:10.578Z,98421.44
2022-12-26T12:36:21.099Z,98407.94
2022-12-26T12:38:33.791Z,98416.63
2022-12-26T12:40:49.968Z,98412.66
2022-12-26T12:43:00.899Z,98427.38
2022-12-26T12:45:22.265Z,98424.19
2022-12-26T12:47:40.641Z,98425.16
2022-12-26T12:50:01.128Z,98418.72
2022-12-26T12:52:15.976Z,98409.63
2022-12-26T12:54:55.596Z,98406.25
2022-12-26T12:57:09.941Z,98401.25
2022-12-26T12:59:26.789Z,98413.88
2022-12-26T13:01:35.551Z,98404.56
2022-12-26T13:03:50.587Z,98409.56
2022-12-26T13:06:02.731Z,98394.69
2022-12-26T13:08:12.988Z,98409.63
2022-12-26T13:10:23.937Z,98408.19
2022-12-26T13:12:35.035Z,98405.66
2022-12-26T13:14:45.043Z,98395.25
2022-12-26T13:16:55.042Z,98392.81
2022-12-26T13:19:06.994Z,98386.63
2022-12-26T13:21:15.094Z,98386.34
2022-12-26T13:23:37.697Z,98376.72
2022-12-26T13:25:53.436Z,98381.09
2022-12-26T13:28:09.986Z,98381.38
2022-12-26T13:30:18.123Z,98389.38
2022-12-26T13:32:25.733Z,98390.16
2022-12-26T13:34:33.784Z,98399.09
2022-12-26T13:36:42.415Z,98398.03
2022-12-26T13:39:23.543Z,98400.25
2022-12-26T13:41:42.120Z,98400.41
2022-12-26T13:44:05.450Z,98387.31
2022-12-26T13:46:39.127Z,98408.22
2022-12-26T13:49:01.825Z,98394.41
2022-12-26T13:51:59.327Z,98392.00
2022-12-26T13:54:12.775Z,98403.88
2022-12-26T13:57:04.296Z,98402.03
2022-12-26T13:59:19.677Z,98399.81
2022-12-26T14:01:39.521Z,98396.25
2022-12-26T14:03:57.966Z,98400.13
2022-12-26T14:06:26.946Z,98407.09
2022-12-26T14:08:39.837Z,98414.31
2022-12-26T14:10:59.731Z,98410.50
2022-12-26T14:13:16.714Z,98408.75
2022-12-26T14:15:30.679Z,98401.78
2022-12-26T14:17:44.765Z,98408.03
2022-12-26T14:20:05.670Z,98408.03
2022-12-26T14:22:22.044Z,98403.28
2022-12-26T14:24:34.348Z,98405.31
2022-12-26T14:26:49.698Z,98407.06
2022-12-26T14:29:03.329Z,98402.56
2022-12-26T14:31:22.208Z,98413.69
2022-12-26T14:33:33.375Z,98408.63
2022-12-26T14:35:44.298Z,98406.47
2022-12-26T14:37:59.878Z,98407.47
2022-12-26T14:40:27.317Z,98404.78
2022-12-26T14:42:45.699Z,98402.28
2022-12-26T14:44:50.750Z,98397.41
2022-12-26T14:47:02.601Z,98412.06
2022-12-26T14:49:28.075Z,98413.31
2022-12-26T14:51:40.953Z,98418.50
2022-12-26T14:53:49.975Z,98413.13
2022-12-26T14:55:56.451Z,98412.06
2022-12-26T14:58:38.960Z,98411.34
2022-12-26T15:00:48.045Z,98416.38
2022-12-26T15:03:15.192Z,98413.13
2022-12-26T15:05:25.250Z,98414.53
2022-12-26T15:08:00.595Z,98389.25
2022-12-26T15:10:37.386Z,98396.56
2022-12-26T15:13:12.117Z,98405.97
2022-12-26T15:15:35.159Z,98407.50
2022-12-26T15:17:48.348Z,98404.19
2022-12-26T15:20:25.836Z,98392.00
2022-12-26T15:23:03.369Z,98395.78
2022-12-26T15:25:38.196Z,98395.72
2022-12-26T15:28:15.951Z,98396.69
2022-12-26T15:30:23.844Z,98400.22
2022-12-26T15:32:41.567Z,98406.41
2022-12-26T15:35:27.829Z,98400.66
2022-12-26T15:38:11.360Z,98414.53
2022-12-26T15:40:22.796Z,98409.28
2022-12-26T15:42:42.700Z,98401.38
2022-12-26T15:44:52.869Z,98410.13
2022-12-26T15:47:13.415Z,98415.63
2022-12-26T15:49:53.322Z,98419.13
2022-12-26T15:52:10.732Z,98418.19
2022-12-26T15:54:32.437Z,98409.66
2022-12-26T15:56:59.073Z,98409.78
2022-12-26T15:59:30.449Z,98415.97
2022-12-26T16:01:43.263Z,98420.38
2022-12-26T16:03:54.446Z,98408.53
2022-12-26T16:06:08.307Z,98416.34
2022-12-26T16:08:38.051Z,98411.19
2022-12-26T16:10:43.952Z,98409.56
2022-12-26T16:13:01.575Z,98401.69
2022-12-26T16:15:19.215Z,98390.56
2022-12-26T16:17:24.982Z,98394.97
2022-12-26T16:19:30.879Z,98408.97
2022-12-26T16:21:51.506Z,98421.31
2022-12-26T16:23:59.366Z,98410.16
2022-12-26T16:26:04.497Z,98413.97
2022-12-26T16:28:09.162Z,98412.38
2022-12-26T16:30:18.752Z,98413.28
2022-12-26T16:32:28.258Z,98425.47
2022-12-26T16:34:37.664Z,98427.19
2022-12-26T16:36:42.621Z,98434.84
2022-12-26T16:38:47.895Z,98429.06
2022-12-26T16:40:56.778Z,98428.00
2022-12-26T16:43:08.787Z,98417.28
2022-12-26T16:45:18.501Z,98431.88
2022-12-26T16:47:23.674Z,98422.75
2022-12-26T16:49:29.677Z,98419.59
2022-12-26T16:51:42.587Z,98426.69
2022-12-26T16:53:47.740Z,98426.56
2022-12-26T16:56:01.009Z,98417.81
2022-12-26T16:58:15.752Z,98410.44
2022-12-26T17:00:23.794Z,98411.81
2022-12-26T17:02:32.788Z,98410.03
2022-12-26T17:04:37.913Z,98402.72
2022-12-26T17:06:49.018Z,98402.66
2022-12-26T17:08:56.017Z,98392.97
2022-12-26T17:11:03.635Z,98402.47
2022-12-26T17:13:11.386Z,98402.59
2022-12-26T17:15:23.350Z,98392.25
2022-12-26T17:17:35.044Z,98397.59
2022-12-26T17:19:40.272Z,98406.31
2022-12-26T17:21:45.155Z,98401.88
2022-12-26T17:24:07.999Z,98400.38
2022-12-26T17:26:32.117Z,98407.16
2022-12-26T17:28:40.529Z,98410.19
2022-12-26T17:30:47.205Z,98407.41
2022-12-26T17:32:51.991Z,98401.34
2022-12-26T17:34:56.966Z,98398.69
2022-12-26T17:37:18.817Z,98390.41
2022-12-26T17:39:26.334Z,98394.69
2022-12-26T17:41:33.741Z,98393.22
2022-12-26T17:43:40.983Z,98401.25
2022-12-26T17:45:47.341Z,98405.72
2022-12-26T17:47:53.524Z,98407.41
2022-12-26T17:49:59.227Z,98411.34
2022-12-26T17:52:04.052Z,98409.59
2022-12-26T17:54:11.002Z,98407.88
2022-12-26T17:56:20.911Z,98409.34
2022-12-26T17:58:28.516Z,98415.22
2022-12-26T18:00:33.426Z,98420.44
2022-12-26T18:02:38.460Z,98414.84
2022-12-26T18:04:43.728Z,98401.03
2022-12-26T18:06:48.687Z,98409.75
2022-12-26T18:08:53.565Z,98413.34
2022-12-26T18:11:00.471Z,98406.66
2022-12-26T18:13:05.810Z,98408.81
2022-12-26T18:15:13.494Z,98404.19
2022-12-26T18:17:21.277Z,98398.88
2022-12-26T18:19:26.184Z,98406.78
2022-12-26T18:21:30.903Z,98407.44
2022-12-26T18:23:36.017Z,98411.66
2022-12-26T18:25:40.996Z,98407.22
2022-12-26T18:27:46.553Z,98405.28
2022-12-26T18:29:53.302Z,98396.41
2022-12-26T18:32:03.209Z,98401.22
2022-12-26T18:34:08.068Z,98403.66
2022-12-26T18:36:14.506Z,98400.78
2022-12-26T18:38:21.720Z,98400.13
2022-12-26T18:40:31.520Z,98392.00
2022-12-26T18:42:36.290Z,98390.25
2022-12-26T18:44:41.527Z,98377.47
2022-12-26T18:46:46.048Z,98379.28
2022-12-26T18:48:54.066Z,98386.09
2022-12-26T18:50:59.673Z,98393.31
2022-12-26T18:53:04.446Z,98392.53
2022-12-26T18:55:09.919Z,98403.00
2022-12-26T18:57:21.161Z,98413.16
2022-12-26T18:59:25.946Z,98438.53
2022-12-26T19:01:30.911Z,98464.88
2022-12-26T19:03:35.920Z,98537.22
2022-12-26T19:05:43.431Z,98563.16
2022-12-26T19:07:50.174Z,98561.06
2022-12-26T19:09:58.124Z,98567.50
2022-12-26T19:12:03.061Z,98557.38
2022-12-26T19:14:08.955Z,98546.44
2022-12-26T19:16:14.007Z,98536.81
2022-12-26T19:18:18.887Z,98545.34
2022-12-26T19:20:25.938Z,98558.53
2022-12-26T19:22:33.343Z,98569.75
2022-12-26T19:24:38.195Z,98572.25
2022-12-26T19:26:43.014Z,98554.97
2022-12-26T19:28:48.239Z,98546.53
2022-12-26T19:30:52.840Z,98556.91
2022-12-26T19:32:57.657Z,98561.00
2022-12-26T19:35:02.967Z,98554.22
2022-12-26T19:37:07.653Z,98568.16
2022-12-26T19:39:15.149Z,98573.28
2022-12-26T19:41:20.448Z,98578.56
2022-12-26T19:43:25.354Z,98585.47
2022-12-26T19:45:30.195Z,98591.50
2022-12-26T19:47:35.461Z,98610.50
2022-12-26T19:49:40.266Z,98601.81
2022-12-26T19:51:45.142Z,98604.41
2022-12-26T19:53:50.700Z,98589.88
2022-12-26T19:55:59.587Z,98576.06
2022-12-26T19:58:04.468Z,98586.34
2022-12-26T20:00:11.235Z,98593.19
2022-12-26T20:02:18.918Z,98593.91
2022-12-26T20:04:23.938Z,98582.72
2022-12-26T20:06:30.219Z,98579.38
2022-12-26T20:08:35.001Z,98576.75
2022-12-26T20:10:40.178Z,98585.28
2022-12-26T20:12:47.363Z,98596.41
2022-12-26T20:14:52.118Z,98598.13
2022-12-26T20:17:07.266Z,98590.88
2022-12-26T20:19:12.805Z,98589.28
2022-12-26T20:21:18.652Z,98579.59
2022-12-26T20:23:23.597Z,98561.31
2022-12-26T20:25:28.513Z,98560.94
2022-12-26T20:27:33.334Z,98553.66
2022-12-26T20:29:40.963Z,98565.44
2022-12-26T20:31:45.805Z,98561.78
2022-12-26T20:33:53.026Z,98576.28
2022-12-26T20:36:04.807Z,98571.94
2022-12-26T20:38:09.572Z,98582.38
2022-12-26T20:40:17.447Z,98590.06
2022-12-26T20:42:22.326Z,98595.75
2022-12-26T20:44:27.275Z,98609.66
2022-12-26T20:46:36.075Z,98604.47
2022-12-26T20:48:40.925Z,98611.22
2022-12-26T20:50:45.775Z,98605.97
2022-12-26T20:52:50.613Z,98612.28
2022-12-26T20:54:55.631Z,98614.88
2022-12-26T20:57:00.405Z,98614.97
2022-12-26T20:59:06.612Z,98604.03
2022-12-26T21:01:15.099Z,98611.91
2022-12-26T21:03:22.682Z,98612.13
2022-12-26T21:05:27.452Z,98614.13
2022-12-26T21:07:34.987Z,98616.06
2022-12-26T21:09:45.958Z,98623.16
2022-12-26T21:11:52.866Z,98629.16
2022-12-26T21:14:00.097Z,98634.44
2022-12-26T21:16:17.332Z,98649.78
2022-12-26T21:18:24.781Z,98653.91
2022-12-26T21:20:29.824Z,98643.53
2022-12-26T21:22:34.779Z,98658.75
2022-12-26T21:24:39.720Z,98662.31
2022-12-26T21:26:48.295Z,98665.88
2022-12-26T21:29:00.287Z,98678.81
2022-12-26T21:31:06.173Z,98671.88
2022-12-26T21:33:11.579Z,98679.84
2022-12-26T21:35:19.227Z,98690.06
2022-12-26T21:37:36.606Z,98686.63
2022-12-26T21:39:42.027Z,98686.53
2022-12-26T21:41:46.800Z,98691.09
2022-12-26T21:43:51.561Z,98691.09
2022-12-26T21:46:00.952Z,98693.75
2022-12-26T21:48:06.294Z,98700.69
2022-12-26T21:50:11.932Z,98700.03
2022-12-26T21:52:19.446Z,98708.66
2022-12-26T21:54:36.745Z,98709.56
2022-12-26T21:56:41.665Z,98708.72
2022-12-26T21:59:00.219Z,98713.03
2022-12-26T22:01:05.116Z,98717.38
2022-12-26T22:03:22.524Z,98716.44
2022-12-26T22:05:28.875Z,98721.03
2022-12-26T22:07:36.281Z,98725.41
2022-12-26T22:09:41.055Z,98739.41
2022-12-26T22:11:59.264Z,98734.31
2022-12-26T22:14:04.064Z,98731.28
2022-12-26T22:16:11.014Z,98719.41
2022-12-26T22:18:18.168Z,98723.06
2022-12-26T22:20:23.173Z,98728.47
2022-12-26T22:22:27.993Z,98732.91
2022-12-26T22:24:38.203Z,98732.09
2022-12-26T22:26:43.003Z,98736.50
2022-12-26T22:28:48.267Z,98742.59
2022-12-26T22:30:53.941Z,98743.50
2022-12-26T22:33:00.162Z,98749.44
2022-12-26T22:35:05.090Z,98736.50
2022-12-26T22:37:09.936Z,98745.13
2022-12-26T22:39:17.550Z,98756.22
2022-12-26T22:41:25.064Z,98751.81
2022-12-26T22:43:33.563Z,98754.47
2022-12-26T22:45:44.235Z,98753.50
2022-12-26T22:47:49.150Z,98763.69
2022-12-26T22:49:54.109Z,98758.38
2022-12-26T22:51:59.663Z,98757.53
2022-12-26T22:54:05.265Z,98758.47
2022-12-26T22:56:10.789Z,98758.44
2022-12-26T22:58:19.622Z,98767.81
2022-12-26T23:00:24.415Z,98785.06
2022-12-26T23:02:29.877Z,98839.56
2022-12-26T23:04:35.467Z,98866.66
2022-12-26T23:06:41.556Z,98882.81
2022-12-26T23:08:46.950Z,98883.25
2022-12-26T23:10:54.000Z,98906.09
2022-12-26T23:12:59.293Z,98892.56
2022-12-26T23:15:06.962Z,98897.03
2022-12-26T23:17:40.754Z,98909.91
2022-12-26T23:20:14.992Z,98915.88
2022-12-26T23:22:20.271Z,98921.91
2022-12-26T23:24:26.060Z,98927.19
2022-12-26T23:26:30.926Z,98909.09
2022-12-26T23:28:48.127Z,98926.25
2022-12-26T23:30:53.093Z,98929.59
2022-12-26T23:32:58.091Z,98915.03
2022-12-26T23:35:02.922Z,98913.31
2022-12-26T23:37:07.676Z,98925.31
2022-12-26T23:39:12.626Z,98912.38
2022-12-26T23:41:18.207Z,98903.78
2022-12-26T23:43:23.392Z,98897.84
2022-12-26T23:45:27.955Z,98897.06
2022-12-26T23:47:38.337Z,98904.75
2022-12-26T23:49:43.169Z,98890.97
2022-12-26T23:51:48.099Z,98884.97
2022-12-26T23:53:52.981Z,98892.72
2022-12-26T23:55:57.799Z,98887.53
2022-12-26T23:58:02.692Z,98882.38
